Portada
METAR-TAF:

METAR-TAF

Aeroports :

Aeroport Internacional de Da Nang

Da Nang, Vietnam

latitud: 16-02N, longitud: 108-11E, altitud: 7 m

Observació

L'informe es va fer fa 1 hora i 5 minuts, a les 13:30 UTC
Vent 3 kt del Sud-Est
Temperatura 25°C
Humitat 83%
Pressió 1017 hPa
Visibilitat: 8000 m
Núvols disperses a una alçada de 1300 ft

METAR: VVDN 261330Z 13003KT 8000 SCT013 25/22 Q1017 NOSIG

Hora: 21:35 (14:35 UTC)

Pronòstic

L'informe es va fer fa 3 hores i 35 minuts, a les 11:00 UTC
Pronòstic vàlid del 26 a les 12 UTC al 27 a les 12 UTC
Vent 5 kt del Est
Visibilitat: 8000 m
Escasses núvols a una alçada de 1300 ft
Evolucionant progressivament
l' 26 a les 21 UTC al 26 a les 22 UTC
Visibilitat: 4000 m
boirina
Evolucionant progressivament
l' 27 a les 00 UTC al 27 a les 01 UTC
Visibilitat: 8000 m

TAF: VVDN 261100Z 2612/2712 08005KT 8000 FEW013 BECMG 2621/2622 4000 BR BECMG 2700/2701 8000 NSW

Observacions i pronòstics meteorològics de més de 4000 aeroports (METAR i TAF).

Les estacions disponibles són els punts grocs i vermells al mapa.

Posi el ratolí al punt desitjat per veure el nom de l'estació.

Feu clic per veure les observacions i els pronòstics meteorològics.

Per canviar el mapa: feu clic els botons verds amb una creu de color negre per apropar; al botó verd amb un guió per allunyar la imatge; o en les fletxes verdes per a mapes adjacents.


METAR-TAF: